Home > Products > Valid Products > MTR

000
SAUS44 KEWX 290152
MTRATT
METAR KATT 290151Z AUTO 15011G22KT 10SM CLR 33/19 A2992 RMK AO2
SLP115 T03280194





000
SAUS44 KEWX 290052
MTRATT
METAR KATT 290051Z AUTO 14008G17KT 10SM CLR 34/18 A2991 RMK AO2
SLP112 T03440183





000
SAUS44 KEWX 282352
MTRATT
METAR KATT 282351Z AUTO VRB06KT 10SM FEW070 36/19 A2990 RMK AO2
SLP110 T03560189 10378 20333 56010





000
SAUS44 KEWX 282252
MTRATT
METAR KATT 282251Z AUTO VRB05KT 10SM FEW070 37/19 A2991 RMK AO2
SLP112 T03670189





000
SAUS44 KEWX 282152
MTRATT
METAR KATT 282151Z AUTO 15010G16KT 10SM FEW070 37/19 A2992 RMK AO2
SLP114 T03720194





000
SAUS44 KEWX 282052
MTRATT
METAR KATT 282051Z AUTO VRB06KT 10SM FEW060 36/19 A2993 RMK AO2
SLP120 T03610194 58016





000
SAUS44 KEWX 281952
MTRATT
METAR KATT 281951Z AUTO 21007KT 180V250 10SM CLR 36/21 A2995 RMK AO2
SLP126 T03610206





000
SAUS44 KEWX 281853
MTRATT
METAR KATT 281851Z AUTO 18008KT 140V220 10SM FEW050 36/21 A2997 RMK
AO2 SLP132 T03560211





000
SAUS44 KEWX 281753
MTRATT
METAR KATT 281751Z AUTO 16008G17KT 10SM FEW041 34/22 A2998 RMK AO2
SLP136 T03440217 10344 20250 56008





000
SAUS44 KEWX 281753
MTRATT
METAR KATT 281751Z AUTO 16008G17KT 10SM FEW041 34/22 A2998 RMK AO2
SLP136 T03440217 10344 20250 56008





000
SAUS44 KEWX 281653
MTRATT
METAR KATT 281651Z AUTO VRB06G16KT 10SM BKN036 33/22 A2999 RMK AO2
SLP140 T03280222





000
SAUS44 KEWX 281552
MTRATT
METAR KATT 281551Z AUTO 16006KT 10SM SCT026 30/23 A3000 RMK AO2
SLP142 T03000228





000
SAUS44 KEWX 281512
MTRATT
SPECI KATT 281511Z AUTO 19008KT 10SM SCT022 29/22 A3000 RMK AO2
T02940222





000
SAUS44 KEWX 281512
MTRATT
SPECI KATT 281511Z AUTO 19008KT 10SM SCT022 29/22 A3000 RMK AO2
T02940222





000
SAUS44 KEWX 281452
MTRATT
METAR KATT 281451Z AUTO VRB04KT 10SM BKN018 OVC025 30/23 A3001 RMK
AO2 SLP145 T03000233 51009





000
SAUS44 KEWX 281352
MTRATT
METAR KATT 281351Z AUTO 18007KT 9SM BKN015 OVC020 27/23 A3000 RMK
AO2 SLP144 T02670233





000
SAUS44 KEWX 281350
MTRATT
SPECI KATT 281349Z AUTO VRB04KT 9SM BKN015 OVC020 27/23 A3000 RMK
AO2





000
SAUS44 KEWX 281350
MTRATT
SPECI KATT 281349Z AUTO VRB04KT 9SM BKN015 OVC020 27/23 A3000 RMK
AO2





000
SAUS44 KEWX 281304
MTRATT
SPECI KATT 281303Z AUTO 17007KT 140V210 7SM BKN013 26/23 A2998 RMK
AO2 T02560233





000
SAUS44 KEWX 281304
MTRATT
SPECI KATT 281303Z AUTO 17007KT 140V210 7SM BKN013 26/23 A2998 RMK
AO2 T02560233





000
SAUS44 KEWX 281252
MTRATT
METAR KATT 281251Z AUTO VRB04KT 6SM BR BKN015 26/23 A2998 RMK AO2
SLP136 T02560233





000
SAUS44 KEWX 281252
MTRATT
METAR KATT 281251Z AUTO VRB04KT 6SM BR BKN015 26/23 A2998 RMK AO2
SLP136 T02560233





000
SAUS44 KEWX 281223
MTRATT
SPECI KATT 281222Z AUTO 17005KT 6SM BR SCT016 25/23 A2997 RMK AO2
T02500233





000
SAUS44 KEWX 281223
MTRATT
SPECI KATT 281222Z AUTO 17005KT 6SM BR SCT016 25/23 A2997 RMK AO2
T02500233





000
SAUS44 KEWX 281213
MTRATT
SPECI KATT 281209Z AUTO VRB04KT 6SM BR FEW010 BKN016 25/23 A2998 RMK
AO2 T02500233





000
SAUS44 KEWX 281152
MTRATT
METAR KATT 281151Z AUTO 17006KT 8SM BKN011 OVC018 25/23 A2997 RMK
AO2 SLP134 T02500233 10272 20250 53007





000
SAUS44 KEWX 281152
MTRATT
METAR KATT 281151Z AUTO 17006KT 8SM BKN011 OVC018 25/23 A2997 RMK
AO2 SLP134 T02500233 10272 20250 53007





000
SAUS44 KEWX 281053
MTRATT
METAR KATT 281051Z AUTO VRB04KT 8SM BKN013 OVC017 26/23 A2997 RMK
AO2 SLP131 T02560233





000
SAUS44 KEWX 280952
MTRATT
METAR KATT 280951Z AUTO VRB04KT 8SM OVC012 26/23 A2996 RMK AO2
SLP127 T02560233





000
SAUS44 KEWX 280852
MTRATT
METAR KATT 280851Z AUTO VRB06KT 8SM OVC012 26/24 A2995 RMK AO2
SLP126 T02610239 58006





000
SAUS44 KEWX 280852
MTRATT
METAR KATT 280851Z AUTO VRB06KT 8SM OVC012 26/24 A2995 RMK AO2
SLP126 T02610239 58006





000
SAUS44 KEWX 280752
MTRATT
METAR KATT 280751Z AUTO VRB06KT 9SM BKN012 26/23 A2996 RMK AO2
SLP130 T02610233





000
SAUS44 KEWX 280752
MTRATT
METAR KATT 280751Z AUTO VRB06KT 9SM BKN012 26/23 A2996 RMK AO2
SLP130 T02610233





000
SAUS44 KEWX 280652
MTRATT
METAR KATT 280651Z AUTO VRB05KT 10SM FEW016 26/23 A2998 RMK AO2
SLP134 T02610233





000
SAUS44 KEWX 280652
MTRATT
METAR KATT 280651Z AUTO VRB05KT 10SM FEW016 26/23 A2998 RMK AO2
SLP134 T02610233





000
SAUS44 KEWX 280552
MTRATT
METAR KATT 280551Z AUTO VRB04KT 10SM CLR 27/23 A2997 RMK AO2 SLP133
T02720228 10344 20272 403780250 51018





000
SAUS44 KEWX 280552
MTRATT
METAR KATT 280551Z AUTO VRB04KT 10SM CLR 27/23 A2997 RMK AO2 SLP133
T02720228 10344 20272 403780250 51018





000
SAUS44 KEWX 280453
MTRATT
METAR KATT 280451Z AUTO 17007KT 10SM CLR 28/23 A2997 RMK AO2 SLP132
T02830228





000
SAUS44 KEWX 280352
MTRATT
METAR KATT 280351Z AUTO 16008G14KT 10SM CLR 29/22 A2996 RMK AO2
SLP127 T02940222





000
SAUS44 KEWX 280253
MTRATT
METAR KATT 280251Z AUTO VRB06KT 10SM CLR 31/21 A2992 RMK AO2 SLP116
T03110211 53020





000
SAUS44 KEWX 280153
MTRATT
METAR KATT 280151Z AUTO 15011G15KT 10SM SCT065 33/19 A2989 RMK AO2
SLP104 T03280194





000
SAUS44 KEWX 280053
MTRATT
METAR KATT 280051Z AUTO 15007KT 100V180 10SM FEW070 33/19 A2987 RMK
AO2 SLP098 T03330189





000
SAUS44 KEWX 280053
MTRATT
METAR KATT 280051Z AUTO 15007KT 100V180 10SM FEW070 33/19 A2987 RMK
AO2 SLP098 T03330189





000
SAUS44 KEWX 272352
MTRATT
METAR KATT 272351Z AUTO VRB05KT 10SM FEW065 34/19 A2986 RMK AO2
SLP095 T03440189 10378 20339 56012





000
SAUS44 KEWX 272252
MTRATT
METAR KATT 272251Z AUTO 16006KT 10SM FEW070 36/19 A2986 RMK AO2
SLP096 T03560194





000
SAUS44 KEWX 272152
MTRATT
METAR KATT 272151Z AUTO VRB05KT 10SM CLR 37/19 A2988 RMK AO2 SLP101
T03670189





000
SAUS44 KEWX 272152
MTRATT
METAR KATT 272151Z AUTO VRB05KT 10SM CLR 37/19 A2988 RMK AO2 SLP101
T03670189





000
SAUS44 KEWX 272052
MTRATT
METAR KATT 272051Z AUTO VRB05KT 10SM SCT060 37/20 A2989 RMK AO2
SLP106 T03720200 58021





000
SAUS44 KEWX 271952
MTRATT
METAR KATT 271951Z AUTO 13005KT 10SM FEW060 36/19 A2992 RMK AO2
SLP114 T03560194





000
SAUS44 KEWX 271952
MTRATT
METAR KATT 271951Z AUTO 13005KT 10SM FEW060 36/19 A2992 RMK AO2
SLP114 T03560194





000
SAUS44 KEWX 271852
MTRATT
METAR KATT 271851Z AUTO VRB04KT 10SM CLR 36/20 A2994 RMK AO2 SLP121
T03610200





000
SAUS44 KEWX 271752
MTRATT
METAR KATT 271751Z AUTO VRB06KT 10SM CLR 34/22 A2996 RMK AO2 SLP128
T03440217 10344 20250 58008





000
SAUS44 KEWX 271652
MTRATT
METAR KATT 271651Z AUTO 10SM CLR 33/22 A2997 RMK AO2 SLP133
T03280222





000
SAUS44 KEWX 271552
MTRATT
METAR KATT 271551Z AUTO VRB04KT 10SM FEW022 31/23 A2998 RMK AO2
SLP135 T03110228





000
SAUS44 KEWX 271529
MTRATT
SPECI KATT 271528Z AUTO VRB03KT 10SM SCT020 30/23 A2998 RMK AO2
T03000233





000
SAUS44 KEWX 271452
MTRATT
METAR KATT 271451Z AUTO VRB03KT 9SM BKN018 29/23 A2998 RMK AO2
SLP137 T02890233 51013





000
SAUS44 KEWX 271452
MTRATT
METAR KATT 271451Z AUTO VRB03KT 9SM BKN018 29/23 A2998 RMK AO2
SLP137 T02890233 51013





000
SAUS44 KEWX 271414
MTRATT
SPECI KATT 271413Z AUTO VRB04KT 8SM BKN015 BKN020 28/23 A2997 RMK
AO2 T02780233 $





000
SAUS44 KEWX 271400
MTRATT
SPECI KATT 271358Z AUTO VRB04KT 7SM SCT013 SCT020 27/23 A2997 RMK
AO2 T02720233 $





000
SAUS44 KEWX 271352
MTRATT
METAR KATT 271351Z AUTO VRB04KT 7SM SCT013 BKN020 28/24 A2997 RMK
AO2 SLP134 T02780239 $





000
SAUS44 KEWX 271352
MTRATT
METAR KATT 271351Z AUTO VRB04KT 7SM SCT013 BKN020 28/24 A2997 RMK
AO2 SLP134 T02780239 $





000
SAUS44 KEWX 271334
MTRATT
SPECI KATT 271333Z AUTO VRB03KT 6SM HZ SCT011 BKN020 27/24 A2997 RMK
AO2 T02670239 $





000
SAUS44 KEWX 271334
MTRATT
SPECI KATT 271333Z AUTO VRB03KT 6SM HZ SCT011 BKN020 27/24 A2997 RMK
AO2 T02670239 $





000
SAUS44 KEWX 271253
MTRATT
METAR KATT 271251Z AUTO 15005KT 5SM BR BKN010 OVC019 26/23 A2996 RMK
AO2 SLP129 T02560233 $





000
SAUS44 KEWX 271253
MTRATT
METAR KATT 271251Z AUTO 15005KT 5SM BR BKN010 OVC019 26/23 A2996 RMK
AO2 SLP129 T02560233 $





000
SAUS44 KEWX 271238
MTRATT
SPECI KATT 271237Z AUTO 17003KT 5SM BR BKN010 BKN019 26/23 A2996 RMK
AO2 T02560233 $





000
SAUS44 KEWX 271238
MTRATT
SPECI KATT 271237Z AUTO 17003KT 5SM BR BKN010 BKN019 26/23 A2996 RMK
AO2 T02560233 $





000
SAUS44 KEWX 271153
MTRATT
METAR KATT 271151Z AUTO 16004KT 7SM SCT012 OVC018 26/23 A2994 RMK
AO2 SLP124 T02560233 10278 20250 53010 $





000
SAUS44 KEWX 271153
MTRATT
METAR KATT 271151Z AUTO 16004KT 7SM SCT012 OVC018 26/23 A2994 RMK
AO2 SLP124 T02560233 10278 20250 53010 $





000
SAUS44 KEWX 271118 COR
MTRATT
SPECI KATT 271114Z AUTO VRB03KT 7SM BKN012 25/23 A2993 RMK AO2
T02500233 $





000
SAUS44 KEWX 271118 COR
MTRATT
SPECI KATT 271114Z AUTO VRB03KT 7SM BKN012 25/23 A2993 RMK AO2
T02500233 $





000
SAUS44 KEWX 271117 COR
MTRATT
SPECI KATT 271114Z AUTO VRB03KT 7SM BKN012 25/23 A2993 RMK AO2
T02500233 $





000
SAUS44 KEWX 271117 COR
MTRATT
SPECI KATT 271114Z AUTO VRB03KT 7SM BKN012 25/23 A2993 RMK AO2
T02500233 $





000
SAUS44 KEWX 271116 COR
MTRATT
SPECI KATT 271114Z AUTO VRB03KT 7SM BKN012 25/23 A2993 RMK AO2
T02500233 $





000
SAUS44 KEWX 271116 COR
MTRATT
SPECI KATT 271114Z AUTO VRB03KT 7SM BKN012 25/23 A2993 RMK AO2
T02500233 $





000
SAUS44 KEWX 271115
MTRATT
SPECI KATT 271114Z AUTO VRB03KT 7SM BKN012 25/23 A2993 RMK AO2
T02500233 $





000
SAUS44 KEWX 271115
MTRATT
SPECI KATT 271114Z AUTO VRB03KT 7SM BKN012 25/23 A2993 RMK AO2
T02500233 $





000
SAUS44 KEWX 271052
MTRATT
METAR KATT 271051Z AUTO 00000KT 6SM BR CLR 25/23 A2992 RMK AO2
SLP117 T02500233 $





000
SAUS44 KEWX 270953
MTRATT
METAR KATT 270951Z AUTO 00000KT 7SM CLR 25/23 A2991 RMK AO2 SLP112
T02500233 $





000
SAUS44 KEWX 270953
MTRATT
METAR KATT 270951Z AUTO 00000KT 7SM CLR 25/23 A2991 RMK AO2 SLP112
T02500233 $





000
SAUS44 KEWX 270852
MTRATT
METAR KATT 270851Z AUTO VRB04KT 8SM SCT014 26/23 A2991 RMK AO2
SLP113 T02560233 58000 $





000
SAUS44 KEWX 270844
MTRATT
SPECI KATT 270843Z AUTO 00000KT 8SM SCT016 26/23 A2991 RMK AO2
T02610233 $





000
SAUS44 KEWX 270839
MTRATT
SPECI KATT 270838Z AUTO VRB04KT 8SM BKN014 26/23 A2991 RMK AO2
T02610233 $





000
SAUS44 KEWX 270839
MTRATT
SPECI KATT 270838Z AUTO VRB04KT 8SM BKN014 26/23 A2991 RMK AO2
T02610233 $





000
SAUS44 KEWX 270752
MTRATT
METAR KATT 270751Z AUTO 17006KT 10SM OVC015 27/23 A2991 RMK AO2
SLP112 T02670233 $





000
SAUS44 KEWX 270752
MTRATT
METAR KATT 270751Z AUTO 17006KT 10SM OVC015 27/23 A2991 RMK AO2
SLP112 T02670233 $





000
SAUS44 KEWX 270708
MTRATT
SPECI KATT 270707Z AUTO VRB04KT 10SM BKN016 27/24 A2992 RMK AO2
T02720239 $





000
SAUS44 KEWX 270652
MTRATT
METAR KATT 270651Z AUTO 16006KT 10SM SCT016 27/24 A2992 RMK AO2
SLP116 T02720239 $





000
SAUS44 KEWX 270629
MTRATT
SPECI KATT 270628Z AUTO 17007G15KT 10SM BKN016 28/24 A2992 RMK AO2
T02780239 $





000
SAUS44 KEWX 270552
MTRATT
METAR KATT 270551Z AUTO 18007KT 10SM CLR 28/24 A2991 RMK AO2 SLP113
T02780239 10344 20278 403670244 50010 $





000
SAUS44 KEWX 270552
MTRATT
METAR KATT 270551Z AUTO 18007KT 10SM CLR 28/24 A2991 RMK AO2 SLP113
T02780239 10344 20278 403670244 50010 $





000
SAUS44 KEWX 270453
MTRATT
METAR KATT 270451Z AUTO 17005KT 10SM CLR 29/23 A2992 RMK AO2 SLP115
T02890233 $





000
SAUS44 KEWX 270453
MTRATT
METAR KATT 270451Z AUTO 17005KT 10SM CLR 29/23 A2992 RMK AO2 SLP115
T02890233 $





000
SAUS44 KEWX 270353
MTRATT
METAR KATT 270351Z AUTO 16007KT 140V200 10SM CLR 30/22 A2990 RMK AO2
SLP109 T03000222 $





000
SAUS44 KEWX 270253
MTRATT
METAR KATT 270251Z AUTO 12004KT 10SM CLR 31/21 A2988 RMK AO2 SLP104
T03060211 51007 $





000
SAUS44 KEWX 270253
MTRATT
METAR KATT 270251Z AUTO 12004KT 10SM CLR 31/21 A2988 RMK AO2 SLP104
T03060211 51007 $





000
SAUS44 KEWX 270153
MTRATT
METAR KATT 270151Z AUTO 12005KT 10SM CLR 32/21 A2988 RMK AO2 SLP102
T03170206 $





000
SAUS44 KEWX 270153
MTRATT
METAR KATT 270151Z AUTO 12005KT 10SM CLR 32/21 A2988 RMK AO2 SLP102
T03170206 $





000
SAUS44 KEWX 270052
MTRATT
METAR KATT 270051Z AUTO 12008KT 10SM CLR 33/21 A2988 RMK AO2 SLP102
T03280206 $





000
SAUS44 KEWX 262352
MTRATT
METAR KATT 262351Z AUTO 12007KT 10SM CLR 34/21 A2986 RMK AO2 SLP096
T03440206 10367 20328 56015 $





000
SAUS44 KEWX 262255 COR
MTRATT
METAR KATT 262251Z AUTO VRB06KT 10SM CLR 36/20 A2987 RMK AO2 SLP098
T03560200 $





000
SAUS44 KEWX 262254 COR
MTRATT
METAR KATT 262251Z AUTO VRB06KT 10SM CLR 36/20 A2987 RMK AO2 SLP098
T03560200 $





000
SAUS44 KEWX 262253 COR
MTRATT
METAR KATT 262251Z AUTO VRB06KT 10SM CLR 36/20 A2987 RMK AO2 SLP098
T03560200 $





000
SAUS44 KEWX 262253 COR
MTRATT
METAR KATT 262251Z AUTO VRB06KT 10SM CLR 36/20 A2987 RMK AO2 SLP098
T03560200 $





000
SAUS44 KEWX 262252
MTRATT
METAR KATT 262251Z AUTO VRB06KT 10SM CLR 36/20 A2987 RMK AO2 SLP098
T03560200 $





000
SAUS44 KEWX 262152
MTRATT
METAR KATT 262151Z AUTO VRB03G14KT 10SM CLR 36/21 A2989 RMK AO2
SLP106 T03610206 $





000
SAUS44 KEWX 262052
MTRATT
METAR KATT 262051Z AUTO 15007KT 10SM FEW050 36/21 A2991 RMK AO2
SLP111 T03560211 56016 $





000
SAUS44 KEWX 261952
MTRATT
METAR KATT 261951Z AUTO VRB05KT 10SM CLR 36/21 A2992 RMK AO2 SLP115
T03560211 $





000
SAUS44 KEWX 261853
MTRATT
METAR KATT 261851Z AUTO 18006KT 10SM SCT039 34/23 A2994 RMK AO2
SLP121 T03440228 $





000
SAUS44 KEWX 261752
MTRATT
METAR KATT 261751Z AUTO 10SM FEW034 34/23 A2995 RMK AO2 SLP127
T03440233 10344 20244 58001 $





000
SAUS44 KEWX 261752
MTRATT
METAR KATT 261751Z AUTO 10SM FEW034 34/23 A2995 RMK AO2 SLP127
T03440233 10344 20244 58001 $





000
SAUS44 KEWX 261652
MTRATT
METAR KATT 261651Z AUTO 16004KT 10SM CLR 32/23 A2996 RMK AO2 SLP129
T03220228





000
SAUS44 KEWX 261552
MTRATT
METAR KATT 261551Z AUTO 10SM SCT023 31/22 A2996 RMK AO2 SLP129
T03060222





000
SAUS44 KEWX 261452
MTRATT
METAR KATT 261451Z AUTO VRB03KT 10SM CLR 29/23 A2996 RMK AO2 SLP129
T02890228 53010





000
SAUS44 KEWX 261452
MTRATT
METAR KATT 261451Z AUTO VRB03KT 10SM CLR 29/23 A2996 RMK AO2 SLP129
T02890228 53010





000
SAUS44 KEWX 261352
MTRATT
METAR KATT 261351Z AUTO 21006KT 10SM FEW012 26/23 A2995 RMK AO2
SLP125 T02610228





000
SAUS44 KEWX 261352
MTRATT
METAR KATT 261351Z AUTO 21006KT 10SM FEW012 26/23 A2995 RMK AO2
SLP125 T02610228





000
SAUS44 KEWX 261339
MTRATT
SPECI KATT 261337Z AUTO VRB04KT 10SM SCT012 26/23 A2995 RMK AO2
T02560228





000
SAUS44 KEWX 261321
MTRATT
SPECI KATT 261320Z AUTO 21004KT 9SM BKN012 26/23 A2995 RMK AO2
T02560233





000
SAUS44 KEWX 261314
MTRATT
SPECI KATT 261313Z AUTO VRB04KT 8SM SCT012 26/23 A2995 RMK AO2
T02560233





000
SAUS44 KEWX 261314
MTRATT
SPECI KATT 261313Z AUTO VRB04KT 8SM SCT012 26/23 A2995 RMK AO2
T02560233





000
SAUS44 KEWX 261252
MTRATT
METAR KATT 261251Z AUTO 20005KT 7SM OVC011 25/23 A2994 RMK AO2
SLP122 T02500233





000
SAUS44 KEWX 261237
MTRATT
SPECI KATT 261236Z AUTO 20004KT 6SM BR BKN009 25/23 A2994 RMK AO2
CIG 006V011 T02500233





000
SAUS44 KEWX 261237
MTRATT
SPECI KATT 261236Z AUTO 20004KT 6SM BR BKN009 25/23 A2994 RMK AO2
CIG 006V011 T02500233





000
SAUS44 KEWX 261152
MTRATT
METAR KATT 261151Z AUTO 00000KT 6SM BR FEW008 24/23 A2993 RMK AO2
SLP119 T02440233 10278 20244 51003





000
SAUS44 KEWX 261109
MTRATT
SPECI KATT 261108Z AUTO 00000KT 7SM SCT009 25/23 A2993 RMK AO2
T02500233





000
SAUS44 KEWX 261052
MTRATT
METAR KATT 261051Z AUTO 20003KT 8SM BKN009 25/23 A2992 RMK AO2 CIG
008V012 SLP117 T02500233





000
SAUS44 KEWX 261008
MTRATT
SPECI KATT 261007Z AUTO 00000KT 9SM BKN010 26/23 A2992 RMK AO2
T02560233





000
SAUS44 KEWX 260953
MTRATT
METAR KATT 260951Z AUTO 18004KT 9SM SCT010 26/24 A2992 RMK AO2
SLP116 T02560239





000
SAUS44 KEWX 260852
MTRATT
METAR KATT 260851Z AUTO VRB05KT 10SM CLR 26/23 A2992 RMK AO2 SLP114
T02610233 58008





000
SAUS44 KEWX 260852
MTRATT
METAR KATT 260851Z AUTO VRB05KT 10SM CLR 26/23 A2992 RMK AO2 SLP114
T02610233 58008





000
SAUS44 KEWX 260752
MTRATT
METAR KATT 260751Z AUTO 20004KT 10SM CLR 26/23 A2993 RMK AO2 SLP119
T02610233





000
SAUS44 KEWX 260752
MTRATT
METAR KATT 260751Z AUTO 20004KT 10SM CLR 26/23 A2993 RMK AO2 SLP119
T02610233





000
SAUS44 KEWX 260652
MTRATT
METAR KATT 260651Z AUTO 19004KT 10SM CLR 27/23 A2994 RMK AO2 SLP122
T02720233





000
SAUS44 KEWX 260553
MTRATT
METAR KATT 260551Z AUTO 19007KT 10SM CLR 28/23 A2994 RMK AO2 SLP123
T02780228 10344 20278 403670239 51007





000
SAUS44 KEWX 260452
MTRATT
METAR KATT 260451Z AUTO VRB05KT 10SM CLR 29/22 A2994 RMK AO2 SLP121
T02890217





000
SAUS44 KEWX 260352
MTRATT
METAR KATT 260351Z AUTO 14005KT 10SM CLR 30/20 A2993 RMK AO2 SLP119
T03000200





000
SAUS44 KEWX 260252
MTRATT
METAR KATT 260251Z AUTO 13003KT 10SM CLR 31/19 A2992 RMK AO2 SLP116
T03110194 53013





000
SAUS44 KEWX 260252
MTRATT
METAR KATT 260251Z AUTO 13003KT 10SM CLR 31/19 A2992 RMK AO2 SLP116
T03110194 53013





    US Dept of Commerce
    National Oceanic and Atmospheric Administration
    National Weather Service
    1325 East West Highway
    Silver Spring, MD 20910
    Page Author: NWS Internet Services Team
Disclaimer
Information Quality
Credits
Glossary
Privacy Policy
Freedom of Information Act (FOIA)
About Us
Career Opportunities